createdAt,value
2022-12-05T00:00:53.938Z,6.40
2022-12-05T00:03:39.270Z,6.40
2022-12-05T00:06:25.198Z,6.40
2022-12-05T00:09:11.469Z,6.40
2022-12-05T00:11:57.753Z,6.40
2022-12-05T00:14:43.182Z,6.40
2022-12-05T00:17:28.252Z,6.30
2022-12-05T00:20:13.344Z,6.40
2022-12-05T00:22:58.636Z,6.40
2022-12-05T00:25:43.614Z,6.40
2022-12-05T00:28:28.723Z,6.40
2022-12-05T00:31:16.373Z,6.40
2022-12-05T00:34:02.617Z,6.40
2022-12-05T00:36:48.010Z,6.40
2022-12-05T00:39:33.169Z,6.40
2022-12-05T00:42:18.197Z,6.40
2022-12-05T00:45:03.494Z,6.40
2022-12-05T00:47:48.463Z,6.40
2022-12-05T00:50:33.512Z,6.50
2022-12-05T00:53:18.479Z,6.50
2022-12-05T00:56:05.512Z,6.50
2022-12-05T00:58:51.998Z,6.50
2022-12-05T01:01:39.676Z,6.50
2022-12-05T01:04:25.294Z,6.40
2022-12-05T01:07:10.637Z,6.40
2022-12-05T01:09:55.856Z,6.50
2022-12-05T01:12:41.380Z,6.50
2022-12-05T01:15:26.450Z,6.40
2022-12-05T01:18:11.530Z,6.40
2022-12-05T01:20:56.557Z,6.50
2022-12-05T01:23:41.622Z,6.50
2022-12-05T01:26:26.873Z,6.50
2022-12-05T01:29:12.971Z,6.60
2022-12-05T01:31:58.395Z,6.50
2022-12-05T01:34:43.349Z,6.50
2022-12-05T01:37:28.493Z,6.60
2022-12-05T01:40:13.771Z,6.60
2022-12-05T01:42:59.204Z,6.60
2022-12-05T01:45:45.856Z,6.60
2022-12-05T01:48:33.317Z,6.50
2022-12-05T01:51:18.698Z,6.60
2022-12-05T01:54:04.740Z,6.60
2022-12-05T01:56:52.761Z,6.60
2022-12-05T01:59:39.761Z,6.60
2022-12-05T02:02:25.242Z,6.60
2022-12-05T02:05:14.416Z,6.60
2022-12-05T02:08:02.739Z,6.60
2022-12-05T02:10:50.315Z,6.60
2022-12-05T02:13:38.460Z,6.50
2022-12-05T02:16:32.789Z,6.60
2022-12-05T02:19:21.060Z,6.60
2022-12-05T02:22:09.190Z,6.60
2022-12-05T02:25:10.410Z,6.60
2022-12-05T02:27:55.567Z,6.60
2022-12-05T02:30:47.516Z,6.60
2022-12-05T02:33:39.344Z,6.60
2022-12-05T02:36:27.740Z,6.60
2022-12-05T02:39:36.317Z,6.60
2022-12-05T02:42:26.433Z,6.60
2022-12-05T02:45:14.051Z,6.60
2022-12-05T02:48:00.029Z,6.60
2022-12-05T02:50:46.676Z,6.60
2022-12-05T02:53:32.817Z,6.60
2022-12-05T02:56:18.337Z,6.60
2022-12-05T02:59:03.729Z,6.60
2022-12-05T03:01:49.842Z,6.70
2022-12-05T03:04:35.252Z,6.70
2022-12-05T03:07:22.125Z,6.70
2022-12-05T03:10:07.989Z,6.70
2022-12-05T03:12:57.404Z,6.70
2022-12-05T03:15:46.446Z,6.70
2022-12-05T03:18:40.380Z,6.60
2022-12-05T03:21:30.405Z,6.60
2022-12-05T03:24:15.914Z,6.60
2022-12-05T03:27:00.993Z,6.60
2022-12-05T03:30:02.511Z,6.60
2022-12-05T03:32:55.348Z,6.60
2022-12-05T03:35:40.746Z,6.70
2022-12-05T03:38:29.708Z,6.60
2022-12-05T03:41:16.557Z,6.50
2022-12-05T03:44:04.969Z,6.60
2022-12-05T03:46:53.591Z,6.60
2022-12-05T03:49:45.395Z,6.60
2022-12-05T03:52:50.999Z,6.60
2022-12-05T03:55:39.691Z,6.60
2022-12-05T03:58:27.103Z,6.60
2022-12-05T04:01:13.077Z,6.60
2022-12-05T04:04:00.823Z,6.60
2022-12-05T04:06:47.199Z,6.60
2022-12-05T04:09:37.651Z,6.60
2022-12-05T04:12:24.722Z,6.60
2022-12-05T04:15:56.367Z,6.60
2022-12-05T04:18:43.803Z,6.60
2022-12-05T04:21:39.921Z,6.60
2022-12-05T04:24:56.949Z,6.60
2022-12-05T04:27:41.975Z,6.60
2022-12-05T04:30:34.016Z,6.60
2022-12-05T04:33:37.967Z,6.60
2022-12-05T04:36:25.563Z,6.70
2022-12-05T04:39:22.721Z,6.70
2022-12-05T04:42:10.062Z,6.70
2022-12-05T04:45:10.146Z,6.60
2022-12-05T04:47:57.146Z,6.60
2022-12-05T04:50:42.652Z,6.70
2022-12-05T04:53:29.932Z,6.70
2022-12-05T04:56:16.546Z,6.70
2022-12-05T04:59:01.542Z,6.70
2022-12-05T05:01:51.336Z,6.70
2022-12-05T05:04:38.464Z,6.70
2022-12-05T05:07:23.551Z,6.80
2022-12-05T05:10:09.344Z,6.80
2022-12-05T05:12:54.535Z,6.80
2022-12-05T05:15:39.977Z,6.70
2022-12-05T05:18:24.931Z,6.70
2022-12-05T05:21:14.767Z,6.60
2022-12-05T05:24:00.578Z,6.60
2022-12-05T05:26:45.974Z,6.70
2022-12-05T05:29:31.105Z,6.70
2022-12-05T05:32:16.410Z,6.60
2022-12-05T05:35:01.631Z,6.60
2022-12-05T05:37:47.037Z,6.60
2022-12-05T05:40:35.201Z,6.60
2022-12-05T05:43:20.145Z,6.60
2022-12-05T05:46:05.380Z,6.50
2022-12-05T05:48:50.603Z,6.50
2022-12-05T05:51:35.863Z,6.50
2022-12-05T05:54:20.945Z,6.50
2022-12-05T05:57:06.052Z,6.40
2022-12-05T05:59:51.176Z,6.40
2022-12-05T06:02:36.517Z,6.30
2022-12-05T06:05:21.724Z,6.30
2022-12-05T06:08:06.896Z,6.30
2022-12-05T06:10:52.500Z,6.40
2022-12-05T06:13:37.526Z,6.40
2022-12-05T06:16:22.932Z,6.40
2022-12-05T06:19:08.493Z,6.70
2022-12-05T06:21:53.516Z,6.60
2022-12-05T06:24:38.996Z,6.60
2022-12-05T06:27:24.381Z,6.70
2022-12-05T06:30:09.804Z,6.70
2022-12-05T06:32:54.897Z,6.70
2022-12-05T06:35:40.732Z,6.50
2022-12-05T06:38:25.662Z,6.40
2022-12-05T06:41:13.741Z,6.40
2022-12-05T06:44:02.198Z,6.30
2022-12-05T06:46:48.758Z,6.40
2022-12-05T06:49:37.839Z,6.40
2022-12-05T06:52:23.383Z,6.40
2022-12-05T06:55:08.864Z,6.20
2022-12-05T06:57:54.043Z,6.10
2022-12-05T07:00:57.828Z,6.10
2022-12-05T07:03:48.777Z,5.80
2022-12-05T07:06:34.697Z,5.90
2022-12-05T07:09:21.395Z,5.90
2022-12-05T07:12:06.782Z,5.80
2022-12-05T07:14:51.971Z,5.80
2022-12-05T07:17:38.488Z,5.80
2022-12-05T07:20:23.560Z,5.90
2022-12-05T07:23:08.719Z,6.00
2022-12-05T07:25:54.057Z,5.90
2022-12-05T07:28:39.326Z,5.80
2022-12-05T07:31:26.023Z,5.80
2022-12-05T07:34:11.469Z,5.90
2022-12-05T07:36:56.557Z,5.90
2022-12-05T07:39:41.594Z,5.80
2022-12-05T07:42:26.627Z,5.90
2022-12-05T07:45:11.701Z,6.00
2022-12-05T07:47:57.015Z,6.00
2022-12-05T07:50:41.850Z,5.90
2022-12-05T07:53:27.020Z,5.80
2022-12-05T07:56:16.857Z,5.80
2022-12-05T07:59:01.996Z,5.80
2022-12-05T08:01:47.227Z,5.80
2022-12-05T08:04:32.035Z,5.90
2022-12-05T08:07:17.178Z,5.90
2022-12-05T08:10:02.161Z,5.80
2022-12-05T08:12:47.312Z,5.70
2022-12-05T08:15:34.068Z,5.80
2022-12-05T08:18:21.985Z,5.70
2022-12-05T08:21:12.398Z,5.80
2022-12-05T08:23:57.869Z,5.80
2022-12-05T08:26:43.309Z,5.90
2022-12-05T08:29:28.293Z,5.90
2022-12-05T08:32:13.326Z,5.70
2022-12-05T08:34:58.271Z,5.50
2022-12-05T08:37:43.396Z,5.60
2022-12-05T08:40:28.356Z,5.60
2022-12-05T08:43:13.825Z,5.70
2022-12-05T08:45:59.407Z,5.70
2022-12-05T08:48:44.645Z,5.60
2022-12-05T08:51:29.769Z,5.80
2022-12-05T08:54:15.291Z,5.90
2022-12-05T08:57:00.762Z,6.00
2022-12-05T08:59:45.772Z,5.80
2022-12-05T09:02:30.952Z,5.90
2022-12-05T09:05:27.704Z,5.90
2022-12-05T09:08:13.719Z,5.90
2022-12-05T09:10:58.692Z,5.80
2022-12-05T09:13:44.170Z,5.80
2022-12-05T09:16:36.529Z,5.80
2022-12-05T09:19:24.049Z,5.80
2022-12-05T09:22:09.255Z,5.60
2022-12-05T09:24:54.309Z,5.50
2022-12-05T09:27:39.441Z,5.50
2022-12-05T09:30:24.545Z,5.60
2022-12-05T09:33:09.789Z,5.70
2022-12-05T09:35:54.882Z,5.70
2022-12-05T09:38:39.991Z,5.70
2022-12-05T09:41:49.836Z,5.70
2022-12-05T09:44:41.651Z,5.60
2022-12-05T09:47:29.814Z,5.60
2022-12-05T09:50:32.223Z,5.60
2022-12-05T09:53:37.574Z,5.60
2022-12-05T09:56:27.224Z,5.70
2022-12-05T09:59:13.524Z,5.70
2022-12-05T10:01:58.991Z,5.70
2022-12-05T10:05:00.314Z,5.60
2022-12-05T10:07:58.270Z,5.70
2022-12-05T10:11:03.338Z,5.70
2022-12-05T10:13:54.140Z,5.80
2022-12-05T10:16:46.873Z,5.80
2022-12-05T10:19:34.245Z,5.90
2022-12-05T10:22:22.730Z,5.90
2022-12-05T10:25:09.281Z,5.90
2022-12-05T10:27:59.904Z,5.90
2022-12-05T10:30:46.100Z,5.90
2022-12-05T10:33:35.804Z,5.80
2022-12-05T10:36:20.773Z,5.80
2022-12-05T10:39:11.288Z,5.70
2022-12-05T10:41:57.078Z,5.70
2022-12-05T10:44:43.088Z,5.80
2022-12-05T10:47:28.993Z,5.90
2022-12-05T10:50:19.537Z,5.90
2022-12-05T10:53:05.522Z,5.90
2022-12-05T10:56:29.193Z,6.00
2022-12-05T10:58:59.890Z,6.00
2022-12-05T11:01:47.932Z,6.10
2022-12-05T11:04:44.672Z,6.10
2022-12-05T11:07:31.497Z,6.20
2022-12-05T11:10:26.362Z,6.20
2022-12-05T11:13:16.444Z,6.10
2022-12-05T11:16:01.860Z,6.10
2022-12-05T11:18:49.307Z,6.10
2022-12-05T11:21:42.140Z,6.10
2022-12-05T11:24:33.706Z,6.10
2022-12-05T11:27:20.981Z,6.10
2022-12-05T11:30:09.473Z,6.10
2022-12-05T11:33:13.181Z,6.20
2022-12-05T11:36:02.630Z,6.30
2022-12-05T11:38:47.996Z,6.30
2022-12-05T11:41:52.201Z,6.30
2022-12-05T11:44:54.711Z,6.30
2022-12-05T11:47:45.916Z,6.40
2022-12-05T11:50:30.913Z,6.30
2022-12-05T11:53:22.649Z,6.30
2022-12-05T11:56:18.439Z,6.30
2022-12-05T11:59:22.721Z,6.30
2022-12-05T12:02:15.206Z,6.20
2022-12-05T12:05:00.900Z,6.20
2022-12-05T12:07:46.236Z,6.20
2022-12-05T12:10:57.719Z,6.20
2022-12-05T12:14:00.961Z,6.10
2022-12-05T12:16:46.207Z,6.20
2022-12-05T12:19:31.755Z,6.10
2022-12-05T12:22:39.070Z,6.00
2022-12-05T12:25:43.904Z,5.90
2022-12-05T12:28:36.508Z,5.80
2022-12-05T12:31:30.486Z,5.80
2022-12-05T12:34:30.676Z,5.90
2022-12-05T12:37:18.956Z,5.90
2022-12-05T12:40:23.035Z,5.90
2022-12-05T12:43:51.529Z,5.70
2022-12-05T12:46:35.044Z,5.80
2022-12-05T12:49:30.403Z,5.80
2022-12-05T12:52:18.184Z,5.90
2022-12-05T12:55:15.834Z,5.90
2022-12-05T12:58:18.181Z,5.80
2022-12-05T13:01:22.551Z,5.70
2022-12-05T13:04:20.076Z,5.60
2022-12-05T13:07:16.394Z,5.70
2022-12-05T13:10:22.570Z,5.80
2022-12-05T13:13:08.210Z,5.90
2022-12-05T13:15:56.150Z,5.90
2022-12-05T13:18:41.389Z,6.00
2022-12-05T13:21:27.079Z,6.10
2022-12-05T13:24:13.413Z,6.20
2022-12-05T13:26:59.781Z,6.30
2022-12-05T13:29:56.829Z,6.40
2022-12-05T13:32:43.723Z,6.40
2022-12-05T13:35:47.630Z,6.50
2022-12-05T13:38:53.388Z,6.50
2022-12-05T13:41:58.285Z,6.60
2022-12-05T13:44:45.407Z,6.60
2022-12-05T13:47:30.703Z,6.60
2022-12-05T13:50:22.507Z,6.60
2022-12-05T13:53:22.517Z,6.60
2022-12-05T13:56:13.949Z,6.60
2022-12-05T13:58:59.240Z,6.60
2022-12-05T14:01:51.902Z,6.60
2022-12-05T14:04:48.119Z,6.60
2022-12-05T14:07:37.666Z,6.60
2022-12-05T14:10:28.750Z,6.60
2022-12-05T14:13:17.008Z,6.60
2022-12-05T14:16:20.898Z,6.60
2022-12-05T14:19:12.044Z,6.60
2022-12-05T14:21:57.359Z,6.60
2022-12-05T14:24:51.656Z,6.50
2022-12-05T14:27:42.703Z,6.60
2022-12-05T14:30:34.252Z,6.60
2022-12-05T14:33:22.263Z,6.60
2022-12-05T14:36:13.413Z,6.60
2022-12-05T14:38:58.842Z,6.60
2022-12-05T14:41:44.935Z,6.60
2022-12-05T14:44:32.244Z,6.60
2022-12-05T14:47:19.541Z,6.60
2022-12-05T14:50:22.883Z,6.60
2022-12-05T14:53:26.718Z,6.50
2022-12-05T14:56:16.153Z,6.60
2022-12-05T14:59:01.517Z,6.60
2022-12-05T15:01:52.083Z,6.60
2022-12-05T15:04:42.240Z,6.60
2022-12-05T15:07:35.868Z,6.60
2022-12-05T15:10:22.438Z,6.50
2022-12-05T15:13:11.409Z,6.40
2022-12-05T15:16:17.687Z,6.30
2022-12-05T15:19:08.222Z,6.30
2022-12-05T15:21:56.688Z,6.30
2022-12-05T15:24:42.102Z,6.40
2022-12-05T15:27:27.179Z,6.30
2022-12-05T15:30:15.661Z,6.20
2022-12-05T15:33:01.163Z,6.30
2022-12-05T15:35:48.182Z,6.20
2022-12-05T15:38:34.780Z,6.30
2022-12-05T15:41:19.935Z,6.20
2022-12-05T15:44:05.086Z,6.30
2022-12-05T15:46:53.807Z,6.30
2022-12-05T15:49:39.252Z,6.30
2022-12-05T15:52:30.595Z,6.30
2022-12-05T15:55:17.972Z,6.30
2022-12-05T15:58:23.401Z,6.30
2022-12-05T16:01:13.083Z,6.40
2022-12-05T16:03:58.075Z,6.40
2022-12-05T16:06:45.324Z,6.50
2022-12-05T16:09:34.477Z,6.40
2022-12-05T16:12:25.800Z,6.50
2022-12-05T16:15:23.021Z,6.30
2022-12-05T16:18:21.592Z,6.20
2022-12-05T16:23:26.234Z,6.10
2022-12-05T16:26:20.945Z,6.10
2022-12-05T16:29:06.143Z,6.20
2022-12-05T16:31:54.194Z,6.20
2022-12-05T16:34:39.502Z,6.10
2022-12-05T16:38:22.547Z,6.10
2022-12-05T16:41:09.171Z,6.10
2022-12-05T16:43:54.598Z,5.90
2022-12-05T16:46:39.686Z,5.90
2022-12-05T16:49:31.022Z,6.00
2022-12-05T16:52:16.654Z,6.00
2022-12-05T16:55:01.932Z,5.90
2022-12-05T16:57:47.310Z,5.90
2022-12-05T17:00:33.132Z,6.00
2022-12-05T17:03:34.140Z,6.00
2022-12-05T17:06:26.834Z,5.90
2022-12-05T17:09:11.850Z,6.00
2022-12-05T17:12:02.600Z,6.00
2022-12-05T17:14:47.770Z,5.90
2022-12-05T17:17:32.660Z,6.10
2022-12-05T17:20:17.596Z,5.90
2022-12-05T17:23:02.552Z,6.00
2022-12-05T17:25:49.808Z,5.90
2022-12-05T17:28:35.142Z,6.00
2022-12-05T17:31:21.530Z,6.00
2022-12-05T17:34:15.616Z,6.00
2022-12-05T17:37:00.911Z,6.00
2022-12-05T17:39:46.138Z,6.10
2022-12-05T17:42:31.162Z,6.10
2022-12-05T17:45:16.527Z,6.10
2022-12-05T17:48:01.609Z,6.10
2022-12-05T17:50:47.850Z,6.10
2022-12-05T17:53:32.945Z,6.10
2022-12-05T17:56:17.925Z,6.00
2022-12-05T17:59:07.021Z,6.00
2022-12-05T18:01:52.363Z,6.00
2022-12-05T18:04:37.728Z,6.10
2022-12-05T18:07:23.053Z,6.10
2022-12-05T18:10:12.627Z,6.10
2022-12-05T18:12:58.177Z,6.10
2022-12-05T18:15:43.569Z,6.20
2022-12-05T18:18:29.413Z,6.10
2022-12-05T18:21:14.428Z,6.10
2022-12-05T18:24:00.082Z,6.00
2022-12-05T18:26:45.252Z,6.00
2022-12-05T18:29:30.240Z,6.10
2022-12-05T18:32:15.609Z,6.10
2022-12-05T18:35:02.142Z,6.10
2022-12-05T18:37:47.425Z,6.10
2022-12-05T18:40:32.505Z,6.40
2022-12-05T18:43:17.710Z,6.40
2022-12-05T18:46:03.631Z,6.30
2022-12-05T18:48:48.938Z,6.30
2022-12-05T18:51:34.007Z,6.30
2022-12-05T18:54:19.155Z,6.20
2022-12-05T18:57:04.232Z,6.20
2022-12-05T18:59:51.890Z,6.20
2022-12-05T19:02:36.975Z,6.30
2022-12-05T19:05:23.334Z,6.30
2022-12-05T19:08:08.683Z,6.30
2022-12-05T19:10:54.185Z,6.30
2022-12-05T19:13:39.451Z,6.30
2022-12-05T19:16:25.499Z,6.20
2022-12-05T19:19:12.810Z,6.20
2022-12-05T19:21:59.878Z,6.30
2022-12-05T19:24:46.346Z,6.30
2022-12-05T19:27:31.571Z,6.30
2022-12-05T19:30:16.677Z,6.30
2022-12-05T19:33:01.772Z,6.30
2022-12-05T19:35:46.824Z,6.30
2022-12-05T19:38:32.773Z,6.30
2022-12-05T19:41:19.764Z,6.30
2022-12-05T19:44:05.381Z,6.30
2022-12-05T19:46:50.660Z,6.30
2022-12-05T19:49:35.641Z,6.40
2022-12-05T19:52:21.185Z,6.40
2022-12-05T19:55:06.236Z,6.40
2022-12-05T19:57:51.196Z,6.40
2022-12-05T20:00:36.265Z,6.40
2022-12-05T20:03:21.585Z,6.40
2022-12-05T20:06:07.719Z,6.30
2022-12-05T20:08:53.030Z,6.40
2022-12-05T20:11:43.913Z,6.40
2022-12-05T20:14:29.240Z,6.40
2022-12-05T20:17:14.280Z,6.40
2022-12-05T20:20:00.306Z,6.40
2022-12-05T20:22:45.814Z,6.40
2022-12-05T20:25:30.782Z,6.40
2022-12-05T20:28:16.574Z,6.40
2022-12-05T20:31:09.333Z,6.40
2022-12-05T20:33:55.581Z,6.40
2022-12-05T20:36:41.262Z,6.30
2022-12-05T20:39:28.057Z,6.30
2022-12-05T20:42:12.909Z,6.20
2022-12-05T20:44:57.956Z,6.20
2022-12-05T20:47:42.925Z,6.20
2022-12-05T20:50:28.130Z,6.30
2022-12-05T20:53:13.849Z,6.30
2022-12-05T20:56:06.544Z,6.40
2022-12-05T20:58:53.205Z,6.30
2022-12-05T21:01:38.879Z,6.30
2022-12-05T21:04:24.520Z,6.30
2022-12-05T21:07:09.560Z,6.40
2022-12-05T21:09:54.540Z,6.30
2022-12-05T21:12:39.467Z,6.30
2022-12-05T21:15:24.601Z,6.20
2022-12-05T21:18:09.574Z,6.20
2022-12-05T21:20:55.489Z,6.20
2022-12-05T21:23:41.623Z,6.10
2022-12-05T21:26:28.444Z,6.10
2022-12-05T21:29:13.528Z,6.20
2022-12-05T21:31:59.556Z,6.20
2022-12-05T21:34:44.564Z,6.20
2022-12-05T21:37:29.698Z,6.30
2022-12-05T21:40:14.742Z,6.30
2022-12-05T21:42:59.860Z,6.30
2022-12-05T21:45:50.261Z,6.30
2022-12-05T21:48:38.238Z,6.40
2022-12-05T21:51:23.351Z,6.40
2022-12-05T21:54:08.273Z,6.40
2022-12-05T21:56:53.278Z,6.40
2022-12-05T21:59:38.404Z,6.40
2022-12-05T22:02:23.463Z,6.40
2022-12-05T22:05:08.901Z,6.40
2022-12-05T22:07:54.034Z,6.40
2022-12-05T22:10:39.348Z,6.50
2022-12-05T22:13:24.332Z,6.50
2022-12-05T22:16:09.631Z,6.90
2022-12-05T22:18:54.708Z,6.40
2022-12-05T22:21:40.581Z,6.40
2022-12-05T22:24:26.234Z,6.40
2022-12-05T22:27:12.246Z,6.40
2022-12-05T22:29:57.299Z,6.40
2022-12-05T22:32:42.359Z,6.40
2022-12-05T22:35:27.290Z,6.40
2022-12-05T22:38:12.324Z,6.40
2022-12-05T22:40:58.213Z,6.40
2022-12-05T22:43:44.255Z,6.40
2022-12-05T22:46:29.647Z,6.40
2022-12-05T22:49:14.857Z,6.40
2022-12-05T22:51:59.977Z,6.30
2022-12-05T22:54:44.968Z,6.30
2022-12-05T22:57:30.228Z,6.30
2022-12-05T23:00:15.504Z,6.30
2022-12-05T23:03:00.487Z,6.20
2022-12-05T23:05:46.043Z,6.20
2022-12-05T23:08:31.229Z,6.20
2022-12-05T23:11:17.448Z,6.10
2022-12-05T23:14:02.853Z,6.10
2022-12-05T23:16:48.525Z,6.10
2022-12-05T23:19:33.760Z,6.20
2022-12-05T23:22:18.850Z,6.20
2022-12-05T23:25:04.043Z,6.30
2022-12-05T23:27:49.066Z,6.20
2022-12-05T23:30:34.213Z,6.30
2022-12-05T23:33:19.337Z,6.20
2022-12-05T23:36:05.559Z,6.30
2022-12-05T23:38:51.125Z,6.30
2022-12-05T23:41:36.228Z,6.30
2022-12-05T23:44:21.897Z,6.10
2022-12-05T23:47:07.002Z,6.20
2022-12-05T23:49:52.407Z,6.10
2022-12-05T23:52:37.991Z,6.00
2022-12-05T23:55:23.115Z,6.00
2022-12-05T23:58:08.321Z,6.00
